sensor_id;sensor_type;location;lat;lon;timestamp;pressure;altitude;pressure_sealevel;temperature;humidity
9474;BME280;8865;47.636;7.692;2022-12-18T00:03:41;99208.63;;;-4.52;100.00
9474;BME280;8865;47.636;7.692;2022-12-18T00:06:08;99198.44;;;-4.56;100.00
9474;BME280;8865;47.636;7.692;2022-12-18T00:08:34;99201.03;;;-4.61;100.00
9474;BME280;8865;47.636;7.692;2022-12-18T00:11:08;99198.41;;;-4.53;100.00
9474;BME280;8865;47.636;7.692;2022-12-18T00:13:34;99203.44;;;-4.44;100.00
9474;BME280;8865;47.636;7.692;2022-12-18T00:16:02;99194.97;;;-4.49;100.00
9474;BME280;8865;47.636;7.692;2022-12-18T00:18:29;99211.06;;;-4.42;100.00
9474;BME280;8865;47.636;7.692;2022-12-18T00:20:58;99201.72;;;-4.42;100.00
9474;BME280;8865;47.636;7.692;2022-12-18T00:23:24;99197.53;;;-4.51;100.00
9474;BME280;8865;47.636;7.692;2022-12-18T00:25:50;99194.91;;;-4.43;100.00
9474;BME280;8865;47.636;7.692;2022-12-18T00:28:16;99194.09;;;-4.46;100.00
9474;BME280;8865;47.636;7.692;2022-12-18T00:30:42;99198.28;;;-4.41;100.00
9474;BME280;8865;47.636;7.692;2022-12-18T00:33:08;99203.44;;;-4.44;100.00
9474;BME280;8865;47.636;7.692;2022-12-18T00:35:34;99206.94;;;-4.51;100.00
9474;BME280;8865;47.636;7.692;2022-12-18T00:38:00;99214.63;;;-4.54;100.00
9474;BME280;8865;47.636;7.692;2022-12-18T00:40:26;99210.34;;;-4.52;100.00
9474;BME280;8865;47.636;7.692;2022-12-18T00:42:52;99215.34;;;-4.41;100.00
9474;BME280;8865;47.636;7.692;2022-12-18T00:45:29;99214.50;;;-4.40;100.00
9474;BME280;8865;47.636;7.692;2022-12-18T00:47:56;99212.78;;;-4.41;100.00
9474;BME280;8865;47.636;7.692;2022-12-18T00:50:24;99217.03;;;-4.39;100.00
9474;BME280;8865;47.636;7.692;2022-12-18T00:52:50;99208.50;;;-4.41;100.00
9474;BME280;8865;47.636;7.692;2022-12-18T00:55:17;99205.97;;;-4.42;100.00
9474;BME280;8865;47.636;7.692;2022-12-18T00:57:43;99210.28;;;-4.46;100.00
9474;BME280;8865;47.636;7.692;2022-12-18T01:00:13;99214.56;;;-4.48;100.00
9474;BME280;8865;47.636;7.692;2022-12-18T01:02:40;99216.25;;;-4.49;100.00
9474;BME280;8865;47.636;7.692;2022-12-18T01:05:07;99218.84;;;-4.53;100.00
9474;BME280;8865;47.636;7.692;2022-12-18T01:07:33;99222.25;;;-4.48;100.00
9474;BME280;8865;47.636;7.692;2022-12-18T01:09:59;99228.25;;;-4.55;100.00
9474;BME280;8865;47.636;7.692;2022-12-18T01:12:25;99223.19;;;-4.58;100.00
9474;BME280;8865;47.636;7.692;2022-12-18T01:14:51;99225.69;;;-4.54;100.00
9474;BME280;8865;47.636;7.692;2022-12-18T01:17:17;99225.72;;;-4.58;100.00
9474;BME280;8865;47.636;7.692;2022-12-18T01:19:42;99229.13;;;-4.56;100.00
9474;BME280;8865;47.636;7.692;2022-12-18T01:22:08;99236.84;;;-4.62;100.00
9474;BME280;8865;47.636;7.692;2022-12-18T01:24:34;99235.94;;;-4.55;100.00
9474;BME280;8865;47.636;7.692;2022-12-18T01:27:00;99253.84;;;-4.58;100.00
9474;BME280;8865;47.636;7.692;2022-12-18T01:29:26;99253.94;;;-4.68;100.00
9474;BME280;8865;47.636;7.692;2022-12-18T01:31:55;99259.91;;;-4.69;100.00
9474;BME280;8865;47.636;7.692;2022-12-18T01:34:21;99241.19;;;-4.72;100.00
9474;BME280;8865;47.636;7.692;2022-12-18T01:36:47;99245.44;;;-4.71;100.00
9474;BME280;8865;47.636;7.692;2022-12-18T01:39:14;99254.81;;;-4.72;100.00
9474;BME280;8865;47.636;7.692;2022-12-18T01:41:41;99257.44;;;-4.79;100.00
9474;BME280;8865;47.636;7.692;2022-12-18T01:50:24;99260.91;;;-4.85;100.00
9474;BME280;8865;47.636;7.692;2022-12-18T01:52:58;99255.91;;;-5.00;100.00
9474;BME280;8865;47.636;7.692;2022-12-18T01:55:28;99255.91;;;-5.02;100.00
9474;BME280;8865;47.636;7.692;2022-12-18T01:57:57;99255.03;;;-4.99;100.00
9474;BME280;8865;47.636;7.692;2022-12-18T02:00:25;99260.19;;;-5.09;100.00
9474;BME280;8865;47.636;7.692;2022-12-18T02:02:53;99259.41;;;-5.17;100.00
9474;BME280;8865;47.636;7.692;2022-12-18T02:05:47;99258.63;;;-5.27;100.00
9474;BME280;8865;47.636;7.692;2022-12-18T02:11:06;99266.28;;;-5.33;100.00
9474;BME280;8865;47.636;7.692;2022-12-18T02:16:31;99279.09;;;-5.44;100.00
9474;BME280;8865;47.636;7.692;2022-12-18T02:19:06;99270.53;;;-5.32;100.00
9474;BME280;8865;47.636;7.692;2022-12-18T02:21:44;99254.44;;;-5.43;100.00
9474;BME280;8865;47.636;7.692;2022-12-18T02:26:48;99260.44;;;-5.50;100.00
9474;BME280;8865;47.636;7.692;2022-12-18T02:29:24;99262.88;;;-5.33;100.00
9474;BME280;8865;47.636;7.692;2022-12-18T02:31:56;99264.63;;;-5.39;100.00
9474;BME280;8865;47.636;7.692;2022-12-18T02:34:26;99271.41;;;-5.36;100.00
9474;BME280;8865;47.636;7.692;2022-12-18T02:36:54;99264.59;;;-5.29;100.00
9474;BME280;8865;47.636;7.692;2022-12-18T02:39:23;99268.84;;;-5.36;100.00
9474;BME280;8865;47.636;7.692;2022-12-18T02:41:51;99273.09;;;-5.32;100.00
9474;BME280;8865;47.636;7.692;2022-12-18T02:44:18;99269.72;;;-5.32;100.00
9474;BME280;8865;47.636;7.692;2022-12-18T02:46:50;99266.28;;;-5.34;100.00
9474;BME280;8865;47.636;7.692;2022-12-18T02:52:32;99257.91;;;-5.55;100.00
9474;BME280;8865;47.636;7.692;2022-12-18T03:03:36;99283.56;;;-5.89;100.00
9474;BME280;8865;47.636;7.692;2022-12-18T03:06:07;99281.84;;;-5.96;100.00
9474;BME280;8865;47.636;7.692;2022-12-18T03:08:41;99279.31;;;-5.96;100.00
9474;BME280;8865;47.636;7.692;2022-12-18T03:11:10;99290.38;;;-5.96;100.00
9474;BME280;8865;47.636;7.692;2022-12-18T03:13:37;99287.88;;;-6.03;100.00
9474;BME280;8865;47.636;7.692;2022-12-18T03:16:06;99288.66;;;-5.94;100.00
9474;BME280;8865;47.636;7.692;2022-12-18T03:18:47;99291.22;;;-5.89;100.00
9474;BME280;8865;47.636;7.692;2022-12-18T03:21:17;99286.94;;;-5.85;100.00
9474;BME280;8865;47.636;7.692;2022-12-18T03:23:48;99282.69;;;-5.83;100.00
9474;BME280;8865;47.636;7.692;2022-12-18T03:26:17;99281.78;;;-5.71;100.00
9474;BME280;8865;47.636;7.692;2022-12-18T03:28:54;99280.13;;;-5.77;100.00
9474;BME280;8865;47.636;7.692;2022-12-18T03:31:23;99283.53;;;-5.83;100.00
9474;BME280;8865;47.636;7.692;2022-12-18T03:33:54;99281.81;;;-5.82;100.00
9474;BME280;8865;47.636;7.692;2022-12-18T03:36:21;99275.06;;;-5.88;100.00
9474;BME280;8865;47.636;7.692;2022-12-18T03:38:48;99282.78;;;-6.00;100.00
9474;BME280;8865;47.636;7.692;2022-12-18T03:41:32;99275.13;;;-5.99;100.00
9474;BME280;8865;47.636;7.692;2022-12-18T03:44:28;99279.38;;;-6.08;100.00
9474;BME280;8865;47.636;7.692;2022-12-18T03:47:08;99274.25;;;-6.02;100.00
9474;BME280;8865;47.636;7.692;2022-12-18T03:49:40;99281.94;;;-6.16;100.00
9474;BME280;8865;47.636;7.692;2022-12-18T03:52:23;99272.63;;;-6.26;100.00
9474;BME280;8865;47.636;7.692;2022-12-18T03:54:55;99280.28;;;-6.22;100.00
9474;BME280;8865;47.636;7.692;2022-12-18T03:57:26;99282.81;;;-6.14;100.00
9474;BME280;8865;47.636;7.692;2022-12-18T04:00:02;99278.56;;;-6.17;100.00
9474;BME280;8865;47.636;7.692;2022-12-18T04:02:30;99277.72;;;-6.19;100.00
9474;BME280;8865;47.636;7.692;2022-12-18T04:04:59;99281.06;;;-6.06;100.00
9474;BME280;8865;47.636;7.692;2022-12-18T04:07:26;99284.47;;;-6.08;100.00
9474;BME280;8865;47.636;7.692;2022-12-18T04:09:56;99281.06;;;-6.03;100.00
9474;BME280;8865;47.636;7.692;2022-12-18T04:12:24;99290.44;;;-6.02;100.00
9474;BME280;8865;47.636;7.692;2022-12-18T04:14:52;99287.00;;;-6.04;100.00
9474;BME280;8865;47.636;7.692;2022-12-18T04:17:18;99293.00;;;-6.08;100.00
9474;BME280;8865;47.636;7.692;2022-12-18T04:19:44;99281.09;;;-6.07;100.00
9474;BME280;8865;47.636;7.692;2022-12-18T04:22:10;99284.47;;;-6.12;100.00
9474;BME280;8865;47.636;7.692;2022-12-18T04:24:36;99277.69;;;-6.05;100.00
9474;BME280;8865;47.636;7.692;2022-12-18T04:27:03;99289.59;;;-6.13;100.00
9474;BME280;8865;47.636;7.692;2022-12-18T04:29:29;99290.44;;;-6.11;100.00
9474;BME280;8865;47.636;7.692;2022-12-18T04:31:55;99281.94;;;-6.15;100.00
9474;BME280;8865;47.636;7.692;2022-12-18T04:34:21;99292.13;;;-6.10;100.00
9474;BME280;8865;47.636;7.692;2022-12-18T04:36:47;99283.66;;;-6.18;100.00
9474;BME280;8865;47.636;7.692;2022-12-18T04:39:14;99286.22;;;-6.21;100.00
9474;BME280;8865;47.636;7.692;2022-12-18T04:41:40;99282.81;;;-6.22;100.00
9474;BME280;8865;47.636;7.692;2022-12-18T04:44:06;99289.59;;;-6.22;100.00
9474;BME280;8865;47.636;7.692;2022-12-18T04:46:32;99290.47;;;-6.40;100.00
9474;BME280;8865;47.636;7.692;2022-12-18T04:48:58;99289.63;;;-6.39;100.00
9474;BME280;8865;47.636;7.692;2022-12-18T04:51:24;99281.16;;;-6.43;100.00
9474;BME280;8865;47.636;7.692;2022-12-18T04:53:50;99281.97;;;-6.44;100.00
9474;BME280;8865;47.636;7.692;2022-12-18T04:56:16;99286.25;;;-6.44;100.00
9474;BME280;8865;47.636;7.692;2022-12-18T04:58:43;99281.13;;;-6.41;100.00
9474;BME280;8865;47.636;7.692;2022-12-18T05:01:11;99281.97;;;-6.46;100.00
9474;BME280;8865;47.636;7.692;2022-12-18T05:03:37;99277.72;;;-6.51;100.00
9474;BME280;8865;47.636;7.692;2022-12-18T05:06:04;99281.97;;;-6.47;100.00
9474;BME280;8865;47.636;7.692;2022-12-18T05:08:31;99274.34;;;-6.46;100.00
9474;BME280;8865;47.636;7.692;2022-12-18T05:13:29;99281.97;;;-6.42;100.00
9474;BME280;8865;47.636;7.692;2022-12-18T05:15:56;99276.88;;;-6.50;100.00
9474;BME280;8865;47.636;7.692;2022-12-18T05:18:25;99279.44;;;-6.42;100.00
9474;BME280;8865;47.636;7.692;2022-12-18T05:20:52;99289.63;;;-6.42;100.00
9474;BME280;8865;47.636;7.692;2022-12-18T05:23:19;99293.00;;;-6.43;100.00
9474;BME280;8865;47.636;7.692;2022-12-18T05:25:59;99288.78;;;-6.43;100.00
9474;BME280;8865;47.636;7.692;2022-12-18T05:28:27;99287.06;;;-6.42;100.00
9474;BME280;8865;47.636;7.692;2022-12-18T05:30:55;99293.00;;;-6.43;100.00
9474;BME280;8865;47.636;7.692;2022-12-18T05:33:23;99285.38;;;-6.43;100.00
9474;BME280;8865;47.636;7.692;2022-12-18T05:35:54;99291.34;;;-6.49;100.00
9474;BME280;8865;47.636;7.692;2022-12-18T05:38:21;99291.34;;;-6.57;100.00
9474;BME280;8865;47.636;7.692;2022-12-18T05:40:48;99295.56;;;-6.54;100.00
9474;BME280;8865;47.636;7.692;2022-12-18T05:43:14;99290.47;;;-6.56;100.00
9474;BME280;8865;47.636;7.692;2022-12-18T05:45:41;99293.91;;;-6.65;100.00
9474;BME280;8865;47.636;7.692;2022-12-18T05:48:07;99291.34;;;-6.69;100.00
9474;BME280;8865;47.636;7.692;2022-12-18T05:50:37;99293.03;;;-6.68;100.00
9474;BME280;8865;47.636;7.692;2022-12-18T05:53:05;99298.13;;;-6.65;100.00
9474;BME280;8865;47.636;7.692;2022-12-18T05:55:38;99310.00;;;-6.70;100.00
9474;BME280;8865;47.636;7.692;2022-12-18T05:58:06;99304.91;;;-6.70;100.00
9474;BME280;8865;47.636;7.692;2022-12-18T06:00:33;99305.75;;;-6.62;100.00
9474;BME280;8865;47.636;7.692;2022-12-18T06:03:00;99310.03;;;-6.67;100.00
9474;BME280;8865;47.636;7.692;2022-12-18T06:05:27;99315.94;;;-6.70;100.00
9474;BME280;8865;47.636;7.692;2022-12-18T06:07:53;99318.50;;;-6.67;100.00
9474;BME280;8865;47.636;7.692;2022-12-18T06:10:19;99323.59;;;-6.68;100.00
9474;BME280;8865;47.636;7.692;2022-12-18T06:12:45;99318.50;;;-6.71;100.00
9474;BME280;8865;47.636;7.692;2022-12-18T06:15:11;99320.19;;;-6.79;100.00
9474;BME280;8865;47.636;7.692;2022-12-18T06:17:37;99328.69;;;-6.74;100.00
9474;BME280;8865;47.636;7.692;2022-12-18T06:20:04;99335.50;;;-6.62;100.00
9474;BME280;8865;47.636;7.692;2022-12-18T06:22:31;99320.22;;;-6.64;100.00
9474;BME280;8865;47.636;7.692;2022-12-18T06:24:57;99329.56;;;-6.60;100.00
9474;BME280;8865;47.636;7.692;2022-12-18T06:27:25;99340.59;;;-6.61;100.00
9474;BME280;8865;47.636;7.692;2022-12-18T06:29:51;99344.84;;;-6.61;100.00
9474;BME280;8865;47.636;7.692;2022-12-18T06:32:17;99343.13;;;-6.67;100.00
9474;BME280;8865;47.636;7.692;2022-12-18T06:34:43;99341.44;;;-6.59;100.00
9474;BME280;8865;47.636;7.692;2022-12-18T06:37:09;99347.38;;;-6.71;100.00
9474;BME280;8865;47.636;7.692;2022-12-18T06:39:35;99347.41;;;-6.69;100.00
9474;BME280;8865;47.636;7.692;2022-12-18T06:42:00;99356.72;;;-6.67;100.00
9474;BME280;8865;47.636;7.692;2022-12-18T06:44:27;99355.03;;;-6.72;100.00
9474;BME280;8865;47.636;7.692;2022-12-18T06:46:53;99352.47;;;-6.74;100.00
9474;BME280;8865;47.636;7.692;2022-12-18T06:49:19;99342.31;;;-6.69;100.00
9474;BME280;8865;47.636;7.692;2022-12-18T06:51:45;99349.06;;;-6.76;100.00
9474;BME280;8865;47.636;7.692;2022-12-18T06:54:11;99352.50;;;-6.66;100.00
9474;BME280;8865;47.636;7.692;2022-12-18T06:56:37;99346.53;;;-6.70;100.00
9474;BME280;8865;47.636;7.692;2022-12-18T06:59:03;99344.84;;;-6.72;100.00
9474;BME280;8865;47.636;7.692;2022-12-18T07:01:29;99355.03;;;-6.72;100.00
9474;BME280;8865;47.636;7.692;2022-12-18T07:03:56;99359.25;;;-6.77;100.00
9474;BME280;8865;47.636;7.692;2022-12-18T07:06:24;99363.50;;;-6.73;100.00
9474;BME280;8865;47.636;7.692;2022-12-18T07:08:51;99371.16;;;-6.67;100.00
9474;BME280;8865;47.636;7.692;2022-12-18T07:11:18;99371.19;;;-6.61;100.00
9474;BME280;8865;47.636;7.692;2022-12-18T07:13:44;99366.06;;;-6.61;100.00
9474;BME280;8865;47.636;7.692;2022-12-18T07:16:16;99371.16;;;-6.72;100.00
9474;BME280;8865;47.636;7.692;2022-12-18T07:18:43;99375.44;;;-6.63;100.00
9474;BME280;8865;47.636;7.692;2022-12-18T07:21:15;99374.56;;;-6.65;100.00
9474;BME280;8865;47.636;7.692;2022-12-18T07:23:41;99379.66;;;-6.62;100.00
9474;BME280;8865;47.636;7.692;2022-12-18T07:26:11;99388.19;;;-6.52;100.00
9474;BME280;8865;47.636;7.692;2022-12-18T07:28:38;99387.31;;;-6.50;100.00
9474;BME280;8865;47.636;7.692;2022-12-18T07:31:22;99390.72;;;-6.51;100.00
9474;BME280;8865;47.636;7.692;2022-12-18T07:33:49;99396.69;;;-6.46;100.00
9474;BME280;8865;47.636;7.692;2022-12-18T07:36:15;99404.34;;;-6.33;100.00
9474;BME280;8865;47.636;7.692;2022-12-18T07:38:42;99399.22;;;-6.36;100.00
9474;BME280;8865;47.636;7.692;2022-12-18T07:41:11;99405.22;;;-6.26;100.00
9474;BME280;8865;47.636;7.692;2022-12-18T07:43:38;99410.31;;;-6.25;100.00
9474;BME280;8865;47.636;7.692;2022-12-18T07:46:04;99415.41;;;-6.11;100.00
9474;BME280;8865;47.636;7.692;2022-12-18T07:48:31;99412.84;;;-6.14;100.00
9474;BME280;8865;47.636;7.692;2022-12-18T07:51:05;99411.16;;;-6.03;100.00
9474;BME280;8865;47.636;7.692;2022-12-18T07:53:32;99422.19;;;-5.98;100.00
9474;BME280;8865;47.636;7.692;2022-12-18T07:56:00;99419.59;;;-5.90;100.00
9474;BME280;8865;47.636;7.692;2022-12-18T07:58:26;99426.41;;;-5.75;100.00
9474;BME280;8865;47.636;7.692;2022-12-18T08:00:52;99432.34;;;-5.70;100.00
9474;BME280;8865;47.636;7.692;2022-12-18T08:03:19;99438.28;;;-5.52;100.00
9474;BME280;8865;47.636;7.692;2022-12-18T08:05:45;99432.31;;;-5.53;100.00
9474;BME280;8865;47.636;7.692;2022-12-18T08:08:11;99436.47;;;-5.21;100.00
9474;BME280;8865;47.636;7.692;2022-12-18T08:10:38;99440.59;;;-4.83;100.00
9474;BME280;8865;47.636;7.692;2022-12-18T08:13:04;99434.41;;;-4.42;100.00
9474;BME280;8865;47.636;7.692;2022-12-18T08:15:30;99429.16;;;-4.19;100.00
9474;BME280;8865;47.636;7.692;2022-12-18T08:17:56;99431.47;;;-3.91;100.00
9474;BME280;8865;47.636;7.692;2022-12-18T08:20:22;99438.91;;;-3.62;100.00
9474;BME280;8865;47.636;7.692;2022-12-18T08:22:48;99430.41;;;-3.64;100.00
9474;BME280;8865;47.636;7.692;2022-12-18T08:25:15;99438.03;;;-3.57;100.00
9474;BME280;8865;47.636;7.692;2022-12-18T08:27:41;99435.44;;;-3.56;100.00
9474;BME280;8865;47.636;7.692;2022-12-18T08:30:07;99436.28;;;-3.55;100.00
9474;BME280;8865;47.636;7.692;2022-12-18T08:32:33;99436.31;;;-3.59;100.00
9474;BME280;8865;47.636;7.692;2022-12-18T08:34:59;99436.31;;;-3.59;100.00
9474;BME280;8865;47.636;7.692;2022-12-18T08:37:25;99439.72;;;-3.60;100.00
9474;BME280;8865;47.636;7.692;2022-12-18T08:39:51;99426.19;;;-3.69;100.00
9474;BME280;8865;47.636;7.692;2022-12-18T08:42:17;99428.84;;;-3.83;100.00
9474;BME280;8865;47.636;7.692;2022-12-18T08:45:03;99421.13;;;-3.75;100.00
9474;BME280;8865;47.636;7.692;2022-12-18T08:47:29;99420.97;;;-3.62;100.00
9474;BME280;8865;47.636;7.692;2022-12-18T08:49:55;99419.16;;;-3.50;100.00
9474;BME280;8865;47.636;7.692;2022-12-18T08:52:21;99413.06;;;-3.40;100.00
9474;BME280;8865;47.636;7.692;2022-12-18T08:54:47;99401.84;;;-3.28;100.00
9474;BME280;8865;47.636;7.692;2022-12-18T08:57:13;99403.69;;;-3.41;100.00
9474;BME280;8865;47.636;7.692;2022-12-18T08:59:39;99404.28;;;-3.17;100.00
9474;BME280;8865;47.636;7.692;2022-12-18T09:02:05;99404.84;;;-2.94;100.00
9474;BME280;8865;47.636;7.692;2022-12-18T09:04:31;99405.19;;;-2.55;100.00
9474;BME280;8865;47.636;7.692;2022-12-18T09:06:57;99404.97;;;-2.39;100.00
9474;BME280;8865;47.636;7.692;2022-12-18T09:09:23;99406.38;;;-2.21;100.00
9474;BME280;8865;47.636;7.692;2022-12-18T09:11:49;99409.25;;;-1.87;100.00
9474;BME280;8865;47.636;7.692;2022-12-18T09:14:15;99415.75;;;-1.64;100.00
9474;BME280;8865;47.636;7.692;2022-12-18T09:16:41;99413.56;;;-1.39;100.00
9474;BME280;8865;47.636;7.692;2022-12-18T09:19:07;99402.66;;;-1.06;100.00
9474;BME280;8865;47.636;7.692;2022-12-18T09:21:37;99402.13;;;-0.82;100.00
9474;BME280;8865;47.636;7.692;2022-12-18T09:24:04;99405.59;;;-0.44;100.00
9474;BME280;8865;47.636;7.692;2022-12-18T09:26:31;99401.38;;;-0.48;100.00
9474;BME280;8865;47.636;7.692;2022-12-18T09:28:57;99404.81;;;-0.10;100.00
9474;BME280;8865;47.636;7.692;2022-12-18T09:31:24;99406.25;;;0.02;100.00
9474;BME280;8865;47.636;7.692;2022-12-18T09:33:51;99407.69;;;0.47;100.00
9474;BME280;8865;47.636;7.692;2022-12-18T09:36:18;99400.81;;;0.79;100.00
9474;BME280;8865;47.636;7.692;2022-12-18T09:38:44;99401.63;;;1.69;100.00
9474;BME280;8865;47.636;7.692;2022-12-18T09:41:33;99413.59;;;2.25;100.00
9474;BME280;8865;47.636;7.692;2022-12-18T09:44:16;99413.53;;;3.92;89.30
9474;BME280;8865;47.636;7.692;2022-12-18T09:49:49;99413.75;;;6.20;70.17
9474;BME280;8865;47.636;7.692;2022-12-18T09:52:29;99406.91;;;6.19;65.37
9474;BME280;8865;47.636;7.692;2022-12-18T09:57:49;99409.13;;;6.78;62.94
9474;BME280;8865;47.636;7.692;2022-12-18T10:00:20;99409.13;;;8.21;57.44
9474;BME280;8865;47.636;7.692;2022-12-18T10:02:46;99405.22;;;9.17;53.40
9474;BME280;8865;47.636;7.692;2022-12-18T10:05:29;99407.28;;;9.26;49.56
9474;BME280;8865;47.636;7.692;2022-12-18T10:11:20;99386.44;;;11.23;44.40
9474;BME280;8865;47.636;7.692;2022-12-18T10:14:04;99377.28;;;12.84;42.05
9474;BME280;8865;47.636;7.692;2022-12-18T10:19:29;99367.41;;;14.61;37.07
9474;BME280;8865;47.636;7.692;2022-12-18T10:22:14;99365.41;;;15.95;34.55
9474;BME280;8865;47.636;7.692;2022-12-18T10:27:24;99366.66;;;16.30;32.58
9474;BME280;8865;47.636;7.692;2022-12-18T10:29:51;99365.88;;;16.57;32.35
9474;BME280;8865;47.636;7.692;2022-12-18T10:32:21;99369.72;;;16.82;31.64
9474;BME280;8865;47.636;7.692;2022-12-18T10:34:49;99362.50;;;15.88;31.96
9474;BME280;8865;47.636;7.692;2022-12-18T10:37:19;99357.75;;;15.12;33.53
9474;BME280;8865;47.636;7.692;2022-12-18T10:39:47;99352.06;;;15.96;32.75
9474;BME280;8865;47.636;7.692;2022-12-18T10:42:30;99342.22;;;17.84;30.30
9474;BME280;8865;47.636;7.692;2022-12-18T10:45:12;99337.00;;;18.89;29.12
9474;BME280;8865;47.636;7.692;2022-12-18T10:47:58;99331.13;;;20.29;27.50
9474;BME280;8865;47.636;7.692;2022-12-18T10:50:35;99330.44;;;19.77;27.31
9474;BME280;8865;47.636;7.692;2022-12-18T10:53:03;99330.44;;;19.02;27.83
9474;BME280;8865;47.636;7.692;2022-12-18T10:55:38;99326.28;;;18.38;28.73
9474;BME280;8865;47.636;7.692;2022-12-18T10:58:33;99329.66;;;17.68;29.60
9474;BME280;8865;47.636;7.692;2022-12-18T11:03:34;99321.91;;;16.46;31.50
9474;BME280;8865;47.636;7.692;2022-12-18T11:08:30;99330.34;;;15.44;34.16
9474;BME280;8865;47.636;7.692;2022-12-18T11:10:56;99324.94;;;15.75;34.37
9474;BME280;8865;47.636;7.692;2022-12-18T11:13:24;99330.41;;;14.72;35.82
9474;BME280;8865;47.636;7.692;2022-12-18T11:15:51;99331.41;;;14.60;36.54
9474;BME280;8865;47.636;7.692;2022-12-18T11:18:22;99318.59;;;15.07;36.45
9474;BME280;8865;47.636;7.692;2022-12-18T11:20:52;99311.59;;;14.14;37.91
9474;BME280;8865;47.636;7.692;2022-12-18T11:23:21;99308.75;;;13.19;39.76
9474;BME280;8865;47.636;7.692;2022-12-18T11:26:02;99314.63;;;12.89;41.31
9474;BME280;8865;47.636;7.692;2022-12-18T11:28:33;99323.44;;;12.31;42.64
9474;BME280;8865;47.636;7.692;2022-12-18T11:33:39;99303.19;;;11.63;44.95
9474;BME280;8865;47.636;7.692;2022-12-18T11:36:08;99313.88;;;10.48;47.62
9474;BME280;8865;47.636;7.692;2022-12-18T11:38:37;99313.66;;;10.64;48.20
9474;BME280;8865;47.636;7.692;2022-12-18T11:44:15;99309.06;;;11.77;46.26
9474;BME280;8865;47.636;7.692;2022-12-18T11:46:53;99300.38;;;11.53;46.34
9474;BME280;8865;47.636;7.692;2022-12-18T11:49:41;99309.06;;;11.77;46.35
9474;BME280;8865;47.636;7.692;2022-12-18T11:52:17;99302.06;;;11.78;46.73
9474;BME280;8865;47.636;7.692;2022-12-18T11:54:45;99292.88;;;12.42;45.38
9474;BME280;8865;47.636;7.692;2022-12-18T12:13:53;99282.16;;;10.90;48.48
9474;BME280;8865;47.636;7.692;2022-12-18T12:16:33;99284.31;;;10.08;50.43
9474;BME280;8865;47.636;7.692;2022-12-18T12:21:54;99284.41;;;10.19;51.32
9474;BME280;8865;47.636;7.692;2022-12-18T12:30:24;99256.16;;;9.98;52.83
9474;BME280;8865;47.636;7.692;2022-12-18T12:38:22;99256.50;;;9.26;56.08
9474;BME280;8865;47.636;7.692;2022-12-18T12:41:02;99254.50;;;9.17;57.83
9474;BME280;8865;47.636;7.692;2022-12-18T12:43:41;99245.44;;;8.81;59.95
9474;BME280;8865;47.636;7.692;2022-12-18T12:46:10;99260.69;;;8.60;61.22
9474;BME280;8865;47.636;7.692;2022-12-18T12:48:46;99262.41;;;8.31;63.73
9474;BME280;8865;47.636;7.692;2022-12-18T12:51:25;99263.81;;;7.63;70.24
9474;BME280;8865;47.636;7.692;2022-12-18T12:53:53;99265.75;;;7.59;73.88
9474;BME280;8865;47.636;7.692;2022-12-18T12:56:21;99270.31;;;7.56;74.56
9474;BME280;8865;47.636;7.692;2022-12-18T13:01:39;99273.19;;;7.51;78.57
9474;BME280;8865;47.636;7.692;2022-12-18T13:07:01;99271.88;;;6.80;86.47
9474;BME280;8865;47.636;7.692;2022-12-18T13:09:31;99265.06;;;6.46;90.85
9474;BME280;8865;47.636;7.692;2022-12-18T13:12:03;99261.50;;;5.96;96.78
9474;BME280;8865;47.636;7.692;2022-12-18T13:14:48;99264.81;;;5.47;100.00
9474;BME280;8865;47.636;7.692;2022-12-18T13:20:08;99268.78;;;5.36;100.00
9474;BME280;8865;47.636;7.692;2022-12-18T13:22:40;99275.19;;;5.29;100.00
9474;BME280;8865;47.636;7.692;2022-12-18T13:25:28;99269.81;;;4.96;100.00
9474;BME280;8865;47.636;7.692;2022-12-18T13:38:23;99278.94;;;4.28;100.00
9474;BME280;8865;47.636;7.692;2022-12-18T13:43:33;99269.06;;;4.37;100.00
9474;BME280;8865;47.636;7.692;2022-12-18T13:46:24;99270.13;;;4.12;100.00
9474;BME280;8865;47.636;7.692;2022-12-18T13:49:01;99273.78;;;3.87;100.00
9474;BME280;8865;47.636;7.692;2022-12-18T13:51:29;99271.59;;;3.56;100.00
9474;BME280;8865;47.636;7.692;2022-12-18T13:54:02;99269.03;;;3.34;100.00
9474;BME280;8865;47.636;7.692;2022-12-18T13:56:33;99273.22;;;3.38;100.00
9474;BME280;8865;47.636;7.692;2022-12-18T13:59:20;99262.84;;;3.16;100.00
9474;BME280;8865;47.636;7.692;2022-12-18T14:01:55;99264.94;;;3.28;100.00
9474;BME280;8865;47.636;7.692;2022-12-18T14:06:53;99264.00;;;3.51;100.00
9474;BME280;8865;47.636;7.692;2022-12-18T14:09:25;99260.41;;;3.55;100.00
9474;BME280;8865;47.636;7.692;2022-12-18T14:11:53;99263.34;;;3.26;100.00
9474;BME280;8865;47.636;7.692;2022-12-18T14:14:48;99260.19;;;3.17;100.00
9474;BME280;8865;47.636;7.692;2022-12-18T14:17:16;99261.69;;;3.01;100.00
9474;BME280;8865;47.636;7.692;2022-12-18T14:19:49;99264.03;;;3.07;100.00
9474;BME280;8865;47.636;7.692;2022-12-18T14:22:21;99257.31;;;3.03;100.00
9474;BME280;8865;47.636;7.692;2022-12-18T14:24:47;99261.28;;;2.90;100.00
9474;BME280;8865;47.636;7.692;2022-12-18T14:27:30;99252.63;;;2.91;100.00
9474;BME280;8865;47.636;7.692;2022-12-18T14:29:55;99251.09;;;2.85;100.00
9474;BME280;8865;47.636;7.692;2022-12-18T14:32:21;99252.28;;;2.76;100.00
9474;BME280;8865;47.636;7.692;2022-12-18T14:34:50;99245.44;;;2.75;100.00
9474;BME280;8865;47.636;7.692;2022-12-18T14:37:20;99247.81;;;2.58;100.00
9474;BME280;8865;47.636;7.692;2022-12-18T14:42:24;99252.00;;;2.38;100.00
9474;BME280;8865;47.636;7.692;2022-12-18T14:47:58;99259.19;;;2.30;100.00
9474;BME280;8865;47.636;7.692;2022-12-18T14:50:25;99256.03;;;2.22;100.00
9474;BME280;8865;47.636;7.692;2022-12-18T14:52:52;99268.84;;;2.00;100.00
9474;BME280;8865;47.636;7.692;2022-12-18T14:55:19;99259.03;;;1.84;100.00
9474;BME280;8865;47.636;7.692;2022-12-18T14:57:53;99268.44;;;1.87;100.00
9474;BME280;8865;47.636;7.692;2022-12-18T15:00:23;99276.66;;;1.73;100.00
9474;BME280;8865;47.636;7.692;2022-12-18T15:02:55;99279.09;;;1.77;100.00
9474;BME280;8865;47.636;7.692;2022-12-18T15:05:29;99270.41;;;1.53;100.00
9474;BME280;8865;47.636;7.692;2022-12-18T15:07:58;99275.03;;;1.43;100.00
9474;BME280;8865;47.636;7.692;2022-12-18T15:10:33;99274.75;;;1.26;100.00
9474;BME280;8865;47.636;7.692;2022-12-18T15:18:00;99289.03;;;1.36;100.00
9474;BME280;8865;47.636;7.692;2022-12-18T15:20:26;99288.44;;;1.28;100.00
9474;BME280;8865;47.636;7.692;2022-12-18T15:22:52;99293.50;;;1.31;100.00
9474;BME280;8865;47.636;7.692;2022-12-18T15:25:37;99301.97;;;1.08;100.00
9474;BME280;8865;47.636;7.692;2022-12-18T15:28:24;99294.75;;;1.18;100.00
9474;BME280;8865;47.636;7.692;2022-12-18T15:31:02;99298.59;;;1.06;100.00